Time;durP1;ratioP1;P1;durP2;ratioP2;P2;SDS_P1;SDS_P2;PMS_P1;PMS_P2;Temp;Humidity;BMP_temperature;BMP_pressure;BME280_temperature;BME280_humidity;BME280_pressure;Samples;Min_cycle;Max_cycle;Signal;HPM_P1;HPM_P2
2023/06/10 00:02:11;;;;;;;11.02;5.28;;;;;;;-145.69;nan;52028.53;5074669;28;20203;-81
2023/06/10 00:04:38;;;;;;;7.80;5.65;;;;;;;-145.69;nan;52016.66;5074807;28;20285;-83
2023/06/10 00:07:08;;;;;;;7.65;4.95;;;;;;;-145.69;nan;52036.44;5072037;28;20227;-82
2023/06/10 00:09:40;;;;;;;8.27;5.55;;;;;;;-145.69;nan;52050.31;5074680;28;20580;-82
2023/06/10 00:12:10;;;;;;;6.78;4.40;;;;;;;-145.69;nan;52032.47;5074429;28;20202;-81
2023/06/10 00:14:41;;;;;;;7.97;5.07;;;;;;;-145.69;nan;52048.31;5074761;28;20302;-82
2023/06/10 00:17:09;;;;;;;8.20;5.32;;;;;;;-145.69;nan;52050.31;5074258;28;20210;-83
2023/06/10 00:19:36;;;;;;;9.48;5.53;;;;;;;-145.69;nan;52056.25;5074353;28;20281;-82
2023/06/10 00:24:48;;;;;;;8.38;5.95;;;;;;;-145.69;nan;52008.72;5073876;28;20203;-82
2023/06/10 00:27:16;;;;;;;9.15;5.78;;;;;;;-145.69;nan;52032.47;5073801;28;20226;-81
2023/06/10 00:29:45;;;;;;;9.80;6.03;;;;;;;-145.69;nan;52048.31;5073994;28;20198;-83
2023/06/10 00:32:12;;;;;;;10.73;5.85;;;;;;;-145.69;nan;52024.56;5074197;28;20657;-82
2023/06/10 00:34:38;;;;;;;8.40;5.40;;;;;;;-145.69;nan;52036.44;5074081;28;20677;-82
2023/06/10 00:37:05;;;;;;;8.38;5.63;;;;;;;-145.69;nan;52068.13;5074154;28;20218;-82
2023/06/10 00:39:32;;;;;;;9.68;5.22;;;;;;;-145.69;nan;51981.00;5073084;28;20605;-82
2023/06/10 00:41:59;;;;;;;8.95;6.20;;;;;;;-145.69;nan;52044.38;5073572;28;20527;-83
2023/06/10 00:44:27;;;;;;;8.27;5.72;;;;;;;-145.69;nan;52072.09;5073786;28;20280;-82
2023/06/10 00:46:56;;;;;;;7.40;5.43;;;;;;;-145.69;nan;52010.69;5073573;28;20563;-82
2023/06/10 00:49:23;;;;;;;9.02;5.85;;;;;;;-145.69;nan;52028.53;5073720;28;20195;-82
2023/06/10 00:51:50;;;;;;;9.80;6.43;;;;;;;-145.69;nan;52036.44;5073602;28;20556;-83
2023/06/10 00:54:17;;;;;;;9.35;6.20;;;;;;;-145.69;nan;52032.47;5072676;28;20216;-83
2023/06/10 00:56:44;;;;;;;10.70;5.97;;;;;;;-145.69;nan;52048.31;5073328;28;20198;-82
2023/06/10 00:59:11;;;;;;;12.27;5.47;;;;;;;-145.69;nan;52044.38;5073696;28;20203;-82
2023/06/10 01:01:39;;;;;;;8.57;6.15;;;;;;;-145.69;nan;52046.34;5072889;28;20719;-83
2023/06/10 01:04:06;;;;;;;12.07;5.68;;;;;;;-145.69;nan;52044.38;5073350;28;20234;-85
2023/06/10 01:06:47;;;;;;;11.57;6.30;;;;;;;-145.69;nan;52046.34;5073289;28;20228;-84
2023/06/10 01:09:21;;;;;;;8.20;5.88;;;;;;;-145.69;nan;52042.38;5073723;28;20199;-82
2023/06/10 01:11:58;;;;;;;12.55;6.05;;;;;;;-145.69;nan;52040.41;5090426;28;20285;-83
2023/06/10 01:14:26;;;;;;;12.00;6.30;;;;;;;-145.69;nan;52038.44;5073307;28;20202;-83
2023/06/10 01:16:54;;;;;;;8.07;6.03;;;;;;;-145.69;nan;52020.59;5073193;28;20214;-83
2023/06/10 01:19:24;;;;;;;8.75;5.53;;;;;;;-145.69;nan;52044.38;5073084;28;20191;-83
2023/06/10 01:21:51;;;;;;;13.32;5.90;;;;;;;-145.69;nan;52012.69;5072905;28;20203;-83
2023/06/10 01:24:19;;;;;;;8.82;6.07;;;;;;;-145.69;nan;52036.44;5073298;28;20194;-82
2023/06/10 01:26:49;;;;;;;11.73;6.43;;;;;;;-145.69;nan;52036.44;5072937;28;22093;-83
2023/06/10 01:29:20;;;;;;;12.95;6.30;;;;;;;-145.69;nan;52036.44;5072890;28;20197;-82
2023/06/10 01:31:50;;;;;;;12.15;6.72;;;;;;;-145.69;nan;52042.38;5071338;28;20186;-82
2023/06/10 01:34:19;;;;;;;10.57;6.38;;;;;;;-145.69;nan;52064.16;5072771;28;20442;-83
2023/06/10 01:36:48;;;;;;;12.80;6.20;;;;;;;-145.69;nan;52024.56;5073157;28;20285;-83
2023/06/10 01:39:18;;;;;;;9.93;6.35;;;;;;;-145.69;nan;52056.25;5072996;28;20290;-83
2023/06/10 01:41:48;;;;;;;11.18;6.60;;;;;;;-145.69;nan;52032.47;5072517;28;20294;-84
2023/06/10 01:44:19;;;;;;;9.88;6.55;;;;;;;-145.69;nan;52020.59;5072886;28;20203;-83
2023/06/10 01:46:46;;;;;;;8.45;6.28;;;;;;;-145.69;nan;52052.28;5073229;28;20203;-83
2023/06/10 01:49:15;;;;;;;9.80;6.05;;;;;;;-145.69;nan;52078.03;5071799;28;20234;-82
2023/06/10 01:51:42;;;;;;;8.70;6.05;;;;;;;-145.69;nan;52056.25;5072638;28;20214;-83
2023/06/10 01:54:09;;;;;;;10.20;6.70;;;;;;;-145.69;nan;52080.00;5072848;28;20190;-82
2023/06/10 01:56:39;;;;;;;13.45;6.90;;;;;;;-145.69;nan;52060.22;5072951;28;20191;-84
2023/06/10 01:59:08;;;;;;;9.98;6.43;;;;;;;-145.69;nan;52072.09;5073198;28;20199;-84
2023/06/10 02:01:35;;;;;;;8.82;6.43;;;;;;;-145.69;nan;52060.22;5072560;28;20199;-84
2023/06/10 02:04:01;;;;;;;14.07;6.72;;;;;;;-145.69;nan;52056.25;5072788;28;20206;-82
2023/06/10 02:06:35;;;;;;;9.55;6.57;;;;;;;-145.69;nan;52040.41;5072580;28;20203;-82
2023/06/10 02:09:01;;;;;;;11.63;6.95;;;;;;;-145.69;nan;52072.09;5072543;28;20233;-82
2023/06/10 02:11:30;;;;;;;8.80;6.18;;;;;;;-145.69;nan;52076.03;5072461;28;20248;-81
2023/06/10 02:13:58;;;;;;;12.35;7.63;;;;;;;-145.69;nan;52066.16;5071657;28;20445;-83
2023/06/10 02:16:27;;;;;;;9.45;6.65;;;;;;;-145.69;nan;52070.09;5071389;28;20194;-84
2023/06/10 02:18:54;;;;;;;18.85;7.32;;;;;;;-145.69;nan;52080.00;5075549;28;20562;-84
2023/06/10 02:21:21;;;;;;;10.68;7.00;;;;;;;-145.69;nan;52072.09;5076330;28;20662;-83
2023/06/10 02:23:47;;;;;;;9.55;6.43;;;;;;;-145.69;nan;52066.16;5075452;28;20281;-83
2023/06/10 02:26:15;;;;;;;10.90;6.77;;;;;;;-145.69;nan;52087.94;5076805;28;20531;-83
2023/06/10 02:28:45;;;;;;;10.05;7.50;;;;;;;-145.69;nan;52074.06;5076523;28;20776;-86
2023/06/10 02:31:14;;;;;;;11.43;7.00;;;;;;;-145.69;nan;52091.88;5076327;28;20194;-82
2023/06/10 02:33:44;;;;;;;10.10;6.80;;;;;;;-145.69;nan;52038.44;5074693;28;20206;-82
2023/06/10 02:36:13;;;;;;;10.45;7.45;;;;;;;-145.69;nan;52087.94;5076243;28;20206;-83
2023/06/10 02:38:39;;;;;;;12.77;7.20;;;;;;;-145.69;nan;52103.78;5076145;28;20210;-81
2023/06/10 02:41:09;;;;;;;10.87;7.27;;;;;;;-145.69;nan;52095.84;5075311;28;20203;-83
2023/06/10 02:43:35;;;;;;;14.20;7.30;;;;;;;-145.69;nan;52078.03;5075788;28;20680;-83
2023/06/10 02:46:02;;;;;;;11.73;7.43;;;;;;;-145.69;nan;52082.00;5075819;28;20194;-82
2023/06/10 02:48:32;;;;;;;9.87;7.67;;;;;;;-145.69;nan;52087.94;5075773;28;20707;-81
2023/06/10 02:50:58;;;;;;;10.00;7.33;;;;;;;-145.69;nan;52080.00;5075773;28;20198;-82
2023/06/10 02:53:25;;;;;;;10.93;7.70;;;;;;;-145.69;nan;52095.84;5076132;28;20203;-81
2023/06/10 02:55:51;;;;;;;11.37;7.53;;;;;;;-145.69;nan;52103.78;5075864;28;20205;-82
2023/06/10 02:58:18;;;;;;;11.60;8.17;;;;;;;-145.69;nan;52080.00;5075754;28;20198;-82
2023/06/10 03:00:45;;;;;;;12.40;8.73;;;;;;;-145.69;nan;52085.94;5076016;28;20199;-82
2023/06/10 03:03:12;;;;;;;10.83;7.60;;;;;;;-145.69;nan;52107.72;5074652;28;20256;-81
2023/06/10 03:05:43;;;;;;;10.40;7.87;;;;;;;-145.69;nan;52105.75;5075550;28;20673;-81
2023/06/10 03:08:09;;;;;;;11.50;7.80;;;;;;;-145.69;nan;52107.72;5075425;28;20807;-82
2023/06/10 03:10:38;;;;;;;13.63;7.77;;;;;;;-145.69;nan;52111.69;5075333;28;20206;-83
2023/06/10 03:13:05;;;;;;;13.37;8.17;;;;;;;-145.69;nan;52099.81;5075513;28;20203;-82
2023/06/10 03:15:32;;;;;;;13.63;8.00;;;;;;;-145.69;nan;52091.88;5075389;28;20584;-82
2023/06/10 03:18:00;;;;;;;13.73;8.90;;;;;;;-145.69;nan;52072.09;5075316;28;20230;-81
2023/06/10 03:20:27;;;;;;;12.13;8.13;;;;;;;-145.69;nan;52113.66;5075765;28;20199;-82
2023/06/10 03:22:56;;;;;;;11.67;8.00;;;;;;;-145.69;nan;52111.69;5075114;28;20559;-81
2023/06/10 03:25:23;;;;;;;14.77;8.20;;;;;;;-145.69;nan;52101.78;5075379;28;20209;-82
2023/06/10 03:27:50;;;;;;;15.47;9.00;;;;;;;-145.69;nan;52131.50;5073854;28;20230;-81
2023/06/10 03:30:17;;;;;;;14.37;8.87;;;;;;;-145.69;nan;52093.88;5075499;28;20305;-82
2023/06/10 03:32:44;;;;;;;12.13;8.33;;;;;;;-145.69;nan;52099.81;5075365;28;20252;-82
2023/06/10 03:35:11;;;;;;;15.83;8.33;;;;;;;-145.69;nan;52083.97;5075179;28;20281;-82
2023/06/10 03:37:38;;;;;;;14.07;8.80;;;;;;;-145.69;nan;52097.84;5074031;28;20199;-82
2023/06/10 03:40:08;;;;;;;12.07;7.87;;;;;;;-145.69;nan;52109.72;5074435;28;20203;-86
2023/06/10 03:42:36;;;;;;;11.80;8.27;;;;;;;-145.69;nan;52101.78;5075613;28;20206;-85
2023/06/10 03:45:04;;;;;;;12.87;8.37;;;;;;;-145.69;nan;52097.84;5076350;28;20225;-87
2023/06/10 03:47:34;;;;;;;13.33;8.60;;;;;;;-145.69;nan;52129.50;5075486;28;20288;-87
2023/06/10 03:50:01;;;;;;;12.67;7.83;;;;;;;-145.69;nan;52080.00;5075806;28;20282;-87
2023/06/10 03:52:29;;;;;;;13.77;8.27;;;;;;;-145.69;nan;52083.97;5076205;28;20662;-86
2023/06/10 03:54:55;;;;;;;14.50;8.47;;;;;;;-145.69;nan;52109.72;5075542;28;20202;-86
2023/06/10 03:57:23;;;;;;;11.77;8.50;;;;;;;-145.69;nan;52080.00;5075318;28;20252;-84
2023/06/10 03:59:50;;;;;;;14.20;8.80;;;;;;;-145.69;nan;52139.41;5074981;28;20658;-86
2023/06/10 04:02:16;;;;;;;12.30;8.73;;;;;;;-145.69;nan;52127.53;5075346;28;20206;-85
2023/06/10 04:04:43;;;;;;;15.87;9.60;;;;;;;-145.69;nan;52123.56;5075277;28;20203;-85
2023/06/10 04:07:10;;;;;;;14.73;9.27;;;;;;;-145.69;nan;52097.84;5075679;28;20715;-85
2023/06/10 04:09:50;;;;;;;13.33;9.00;;;;;;;-145.69;nan;52151.28;5075139;28;20231;-86
2023/06/10 04:12:18;;;;;;;15.15;9.90;;;;;;;-145.69;nan;52095.84;5073973;28;20447;-86
2023/06/10 04:14:46;;;;;;;13.87;8.80;;;;;;;-145.69;nan;52117.63;5075501;28;20195;-86
2023/06/10 04:17:13;;;;;;;14.33;8.67;;;;;;;-145.69;nan;52127.53;5074300;28;20205;-87
2023/06/10 04:19:40;;;;;;;14.37;8.20;;;;;;;-145.69;nan;52115.66;5067207;28;20192;-85
2023/06/10 04:22:07;;;;;;;11.83;8.50;;;;;;;-145.69;nan;52123.56;5055679;28;20199;-87
2023/06/10 04:24:33;;;;;;;11.90;7.63;;;;;;;-145.69;nan;52107.72;5070690;28;20202;-86
2023/06/10 04:27:00;;;;;;;12.63;8.67;;;;;;;-145.69;nan;52107.72;5074918;28;20191;-84
2023/06/10 04:29:26;;;;;;;11.90;8.50;;;;;;;-145.69;nan;52129.50;5074083;28;20269;-85
2023/06/10 04:31:57;;;;;;;13.70;8.30;;;;;;;-145.69;nan;52105.75;5074941;28;20203;-86
2023/06/10 04:34:33;;;;;;;15.77;8.23;;;;;;;-145.69;nan;52135.47;5074530;28;20256;-86
2023/06/10 04:37:02;;;;;;;11.30;8.60;;;;;;;-145.69;nan;52131.50;5075203;28;20194;-87
2023/06/10 04:39:29;;;;;;;12.07;8.50;;;;;;;-145.69;nan;52107.72;5074251;28;20709;-87
2023/06/10 04:41:56;;;;;;;13.67;8.60;;;;;;;-145.69;nan;52083.97;5075108;28;20203;-86
2023/06/10 04:44:24;;;;;;;12.10;7.63;;;;;;;-145.69;nan;52095.84;5074842;28;20199;-87
2023/06/10 04:46:54;;;;;;;13.50;8.63;;;;;;;-145.69;nan;52137.44;5074625;28;20538;-86
2023/06/10 04:49:22;;;;;;;13.70;7.80;;;;;;;-145.69;nan;52087.94;5074634;28;20227;-86
2023/06/10 04:51:52;;;;;;;11.13;8.27;;;;;;;-145.69;nan;52107.72;5074285;28;20260;-85
2023/06/10 04:54:18;;;;;;;11.35;7.85;;;;;;;-145.69;nan;52111.69;5073795;28;20273;-86
2023/06/10 04:56:45;;;;;;;13.23;8.73;;;;;;;-145.69;nan;52095.84;5072984;28;20207;-86
2023/06/10 04:59:11;;;;;;;15.23;8.27;;;;;;;-145.69;nan;52119.63;5074083;28;20205;-87
2023/06/10 05:01:38;;;;;;;13.43;7.65;;;;;;;-145.69;nan;52117.63;5074577;28;20217;-86
2023/06/10 05:04:05;;;;;;;13.10;7.85;;;;;;;-145.69;nan;52091.88;5073907;28;20199;-85
2023/06/10 05:06:36;;;;;;;11.80;7.32;;;;;;;-145.69;nan;52103.78;5074700;28;20203;-87
2023/06/10 05:09:03;;;;;;;9.93;7.13;;;;;;;-145.69;nan;52076.03;5074566;28;20581;-87
2023/06/10 05:11:31;;;;;;;10.77;7.22;;;;;;;-145.69;nan;52099.81;5074356;28;20230;-87
2023/06/10 05:13:57;;;;;;;9.20;6.82;;;;;;;-145.69;nan;52083.97;5074075;28;20195;-86
2023/06/10 05:16:27;;;;;;;10.38;7.00;;;;;;;-145.69;nan;52123.56;5073976;28;20653;-86
2023/06/10 05:18:54;;;;;;;8.68;6.53;;;;;;;-145.69;nan;52087.94;5074226;28;20685;-87
2023/06/10 05:21:22;;;;;;;8.80;6.88;;;;;;;-145.69;nan;52072.09;5072345;28;21586;-86
2023/06/10 05:23:51;;;;;;;8.70;6.78;;;;;;;-145.69;nan;52076.03;5073616;28;20260;-86
2023/06/10 05:26:18;;;;;;;10.07;6.68;;;;;;;-145.69;nan;52107.72;5053610;28;20257;-85
2023/06/10 05:28:48;;;;;;;10.35;6.68;;;;;;;-145.69;nan;52078.03;5053645;28;20261;-86
2023/06/10 05:31:15;;;;;;;10.32;6.72;;;;;;;-145.69;nan;52076.03;5053785;28;20310;-86
2023/06/10 05:33:41;;;;;;;10.68;6.43;;;;;;;-145.69;nan;52064.16;5054026;28;20257;-86
2023/06/10 05:36:08;;;;;;;9.88;6.70;;;;;;;-145.69;nan;52046.34;5054685;28;20202;-85
2023/06/10 05:38:34;;;;;;;8.27;6.00;;;;;;;-145.69;nan;52040.41;5073160;28;20209;-84
2023/06/10 05:41:04;;;;;;;10.90;6.00;;;;;;;-145.69;nan;52060.22;5073302;28;20677;-85
2023/06/10 05:43:30;;;;;;;8.60;5.40;;;;;;;-145.69;nan;52032.47;5073426;28;20202;-85
2023/06/10 05:45:57;;;;;;;9.20;5.30;;;;;;;-145.69;nan;52002.78;5073175;28;20665;-85
2023/06/10 05:48:23;;;;;;;8.30;5.72;;;;;;;-145.69;nan;52036.44;5072768;28;20227;-85
2023/06/10 05:50:50;;;;;;;9.27;4.80;;;;;;;-145.69;nan;51979.03;5072759;28;20210;-85
2023/06/10 05:53:16;;;;;;;6.65;5.13;;;;;;;-145.69;nan;51965.16;5072583;28;20553;-85
2023/06/10 05:55:43;;;;;;;7.35;4.53;;;;;;;-145.69;nan;51965.16;5072674;28;20224;-84
2023/06/10 05:58:12;;;;;;;7.38;4.80;;;;;;;-145.69;nan;51963.19;5072739;28;20209;-84
2023/06/10 06:00:39;;;;;;;9.40;5.22;;;;;;;-145.69;nan;51961.19;5072734;28;20649;-85
2023/06/10 06:03:07;;;;;;;6.90;5.03;;;;;;;-145.69;nan;51955.25;5072507;28;20190;-85
2023/06/10 06:05:35;;;;;;;7.32;5.20;;;;;;;-145.69;nan;51937.44;5072344;28;20264;-85
2023/06/10 06:08:04;;;;;;;9.13;4.90;;;;;;;-145.69;nan;51975.06;5071485;28;20201;-84
2023/06/10 06:10:31;;;;;;;10.13;5.90;;;;;;;-145.69;nan;51994.88;5071821;28;20509;-84
2023/06/10 06:13:00;;;;;;;8.07;5.47;;;;;;;-145.69;nan;51975.06;5072809;28;20565;-83
2023/06/10 06:15:28;;;;;;;8.73;5.82;;;;;;;-145.69;nan;52008.72;5072589;28;20249;-83
2023/06/10 06:17:55;;;;;;;9.93;5.85;;;;;;;-145.69;nan;51981.00;5067758;28;20260;-84
2023/06/10 06:20:23;;;;;;;8.95;5.97;;;;;;;-145.69;nan;51996.84;5064656;28;20203;-84
2023/06/10 06:22:50;;;;;;;9.30;6.10;;;;;;;-145.69;nan;52014.66;5061149;28;20194;-83
2023/06/10 06:25:18;;;;;;;9.52;6.22;;;;;;;-145.69;nan;51967.13;5072852;28;20285;-83
2023/06/10 06:27:50;;;;;;;8.18;5.70;;;;;;;-145.69;nan;51961.19;5072276;28;20201;-83
2023/06/10 06:30:20;;;;;;;13.90;6.10;;;;;;;-145.69;nan;52022.59;5072157;28;20269;-83
2023/06/10 06:32:48;;;;;;;10.52;5.60;;;;;;;-145.69;nan;51996.84;5072286;28;20561;-85
2023/06/10 06:35:14;;;;;;;9.02;6.05;;;;;;;-145.69;nan;51996.84;5072416;28;20256;-84
2023/06/10 06:37:41;;;;;;;8.77;6.15;;;;;;;-145.69;nan;52014.66;5071412;28;20261;-84
2023/06/10 06:40:08;;;;;;;8.57;5.82;;;;;;;-145.69;nan;51981.00;5072636;28;20225;-84
2023/06/10 06:42:35;;;;;;;15.93;6.70;;;;;;;-145.69;nan;52008.72;5072546;28;20199;-84
2023/06/10 06:45:03;;;;;;;8.48;5.97;;;;;;;-145.69;nan;52024.56;5072009;28;20683;-84
2023/06/10 06:47:29;;;;;;;12.68;6.45;;;;;;;-145.69;nan;51977.03;5071913;28;20267;-83
2023/06/10 06:49:57;;;;;;;9.57;5.65;;;;;;;-145.69;nan;51981.00;5072299;28;20222;-83
2023/06/10 06:52:24;;;;;;;10.60;5.90;;;;;;;-145.69;nan;51984.97;5071657;28;20650;-83
2023/06/10 06:54:50;;;;;;;11.02;6.20;;;;;;;-145.69;nan;52008.72;5060590;28;20195;-83
2023/06/10 06:57:17;;;;;;;8.65;5.53;;;;;;;-145.69;nan;52042.38;5071569;28;20191;-83
2023/06/10 06:59:43;;;;;;;9.05;5.55;;;;;;;-145.69;nan;51969.13;5072087;28;20199;-84
2023/06/10 07:02:10;;;;;;;7.80;5.63;;;;;;;-145.69;nan;51953.28;5071352;28;20666;-81
2023/06/10 07:04:41;;;;;;;8.02;5.70;;;;;;;-145.69;nan;52002.78;5076626;28;20244;-86
2023/06/10 07:07:09;;;;;;;7.72;5.35;;;;;;;-145.69;nan;51961.19;5077193;28;20202;-84
2023/06/10 07:09:36;;;;;;;8.18;5.43;;;;;;;-145.69;nan;51992.88;5076122;28;20279;-81
2023/06/10 07:12:02;;;;;;;8.85;5.53;;;;;;;-145.69;nan;51965.16;5075553;28;20539;-81
2023/06/10 07:14:28;;;;;;;7.43;5.45;;;;;;;-145.69;nan;51961.19;5075844;28;20202;-80
2023/06/10 07:16:55;;;;;;;8.80;5.47;;;;;;;-145.69;nan;51957.25;5075933;28;20252;-81
2023/06/10 07:19:24;;;;;;;12.10;5.60;;;;;;;-145.69;nan;51973.06;5075651;28;20206;-81
2023/06/10 07:21:50;;;;;;;7.78;5.05;;;;;;;-145.69;nan;51955.25;5075915;28;20199;-81
2023/06/10 07:24:19;;;;;;;15.35;5.50;;;;;;;-145.69;nan;51959.22;5075057;28;20194;-82
2023/06/10 07:26:46;;;;;;;8.38;5.15;;;;;;;-145.69;nan;51977.03;5075778;28;20641;-81
2023/06/10 07:29:12;;;;;;;6.80;4.90;;;;;;;-145.69;nan;51943.38;5075207;28;20229;-81
2023/06/10 07:31:42;;;;;;;8.18;5.78;;;;;;;-145.69;nan;51981.00;5075327;28;20676;-80
2023/06/10 07:34:08;;;;;;;6.47;4.82;;;;;;;-145.69;nan;51941.41;5075606;28;20210;-82
2023/06/10 07:36:36;;;;;;;7.72;5.75;;;;;;;-145.69;nan;51955.25;5075431;28;20261;-81
2023/06/10 07:39:04;;;;;;;7.53;4.90;;;;;;;-145.69;nan;51953.28;5074635;28;20680;-81
2023/06/10 07:41:32;;;;;;;8.63;5.72;;;;;;;-145.69;nan;51923.56;5075175;28;20680;-82
2023/06/10 07:43:59;;;;;;;7.03;4.82;;;;;;;-145.69;nan;51953.28;5075000;28;20198;-83
2023/06/10 07:46:26;;;;;;;7.32;5.20;;;;;;;-145.69;nan;51917.63;5075255;28;20206;-82
2023/06/10 07:48:54;;;;;;;6.57;4.88;;;;;;;-145.69;nan;51943.38;5074945;28;20238;-81
2023/06/10 07:51:21;;;;;;;7.43;4.90;;;;;;;-145.69;nan;51915.66;5075138;28;20221;-81
2023/06/10 07:53:48;;;;;;;7.82;4.88;;;;;;;-145.69;nan;51895.84;5074484;28;20201;-81
2023/06/10 07:56:14;;;;;;;8.85;4.40;;;;;;;-145.69;nan;51913.69;5075074;28;20199;-83
2023/06/10 07:58:44;;;;;;;6.18;4.00;;;;;;;-145.69;nan;51911.69;5074915;28;20199;-82
2023/06/10 08:01:10;;;;;;;6.32;4.70;;;;;;;-145.69;nan;51921.59;5074111;28;20191;-81
2023/06/10 08:03:39;;;;;;;6.13;4.30;;;;;;;-145.69;nan;51909.72;5074321;28;20203;-82
2023/06/10 08:06:06;;;;;;;8.00;4.95;;;;;;;-145.69;nan;51917.63;5074599;28;20203;-81
2023/06/10 08:08:34;;;;;;;8.18;5.07;;;;;;;-145.69;nan;51893.88;5074644;28;20202;-82
2023/06/10 08:11:01;;;;;;;8.98;4.90;;;;;;;-145.69;nan;51883.97;5074288;28;20680;-81
2023/06/10 08:13:27;;;;;;;8.32;4.93;;;;;;;-145.69;nan;51905.75;5074068;28;20205;-82
2023/06/10 08:15:55;;;;;;;7.43;5.00;;;;;;;-145.69;nan;51889.91;5075077;28;20198;-82
2023/06/10 08:18:22;;;;;;;8.38;4.65;;;;;;;-145.69;nan;51911.69;5064183;28;20199;-82
2023/06/10 08:20:48;;;;;;;7.88;4.72;;;;;;;-145.69;nan;51858.22;5054428;28;20207;-83
2023/06/10 08:23:15;;;;;;;7.00;5.43;;;;;;;-145.69;nan;51870.13;5063833;28;20256;-81
2023/06/10 08:25:42;;;;;;;8.50;5.40;;;;;;;-145.69;nan;51874.06;5071081;28;20531;-84
2023/06/10 08:28:11;;;;;;;6.35;4.55;;;;;;;-145.69;nan;51878.03;5074630;28;20229;-83
2023/06/10 08:30:37;;;;;;;6.70;4.95;;;;;;;-145.69;nan;51874.06;5073842;28;20230;-84
2023/06/10 08:33:08;;;;;;;7.03;5.05;;;;;;;-145.69;nan;51848.34;5074598;28;20199;-84
2023/06/10 08:35:34;;;;;;;6.32;4.60;;;;;;;-145.69;nan;51854.28;5073875;28;20699;-83
2023/06/10 08:38:02;;;;;;;7.00;4.90;;;;;;;-145.69;nan;51870.13;5073430;28;20199;-81
2023/06/10 08:40:29;;;;;;;6.72;4.53;;;;;;;-145.69;nan;51862.19;5073920;28;20196;-81
2023/06/10 08:43:06;;;;;;;8.48;4.88;;;;;;;-145.69;nan;51834.47;5074052;28;20202;-80
2023/06/10 08:45:35;;;;;;;10.98;4.82;;;;;;;-145.69;nan;51834.47;5074004;28;20202;-80
2023/06/10 08:48:14;;;;;;;11.40;4.60;;;;;;;-145.69;nan;51862.19;5073710;28;20285;-85
2023/06/10 08:50:42;;;;;;;8.38;4.22;;;;;;;-145.69;nan;51883.97;5073966;28;20321;-82
2023/06/10 08:53:08;;;;;;;5.70;4.22;;;;;;;-145.69;nan;51848.34;5073511;28;20535;-82
2023/06/10 08:55:42;;;;;;;7.13;4.30;;;;;;;-145.69;nan;51889.91;5073582;28;20268;-84
2023/06/10 08:58:11;;;;;;;6.22;4.22;;;;;;;-145.69;nan;51870.13;5073716;28;20194;-83
2023/06/10 09:00:38;;;;;;;6.03;4.15;;;;;;;-145.69;nan;51885.94;5073549;28;20210;-82
2023/06/10 09:03:08;;;;;;;5.80;4.50;;;;;;;-145.69;nan;51889.91;5073702;28;20195;-82
2023/06/10 09:05:36;;;;;;;5.60;4.05;;;;;;;-145.69;nan;51862.19;5073562;28;20610;-82
2023/06/10 09:08:03;;;;;;;6.05;4.05;;;;;;;-145.69;nan;51913.69;5073460;28;20662;-82
2023/06/10 09:10:30;;;;;;;6.15;4.28;;;;;;;-145.69;nan;51866.16;5073137;28;20222;-82
2023/06/10 09:12:57;;;;;;;7.82;4.68;;;;;;;-145.69;nan;51868.13;5073208;28;20612;-82
2023/06/10 09:15:24;;;;;;;8.50;4.90;;;;;;;-145.69;nan;51878.03;5073541;28;20199;-82
2023/06/10 09:17:51;;;;;;;7.25;4.57;;;;;;;-145.69;nan;51901.78;5073404;28;20205;-83
2023/06/10 09:20:18;;;;;;;8.38;4.32;;;;;;;-145.69;nan;51858.22;5073407;28;20670;-82
2023/06/10 09:22:47;;;;;;;6.55;5.00;;;;;;;-145.69;nan;51866.16;5072912;28;20198;-82
2023/06/10 09:25:16;;;;;;;8.20;4.85;;;;;;;-145.69;nan;51868.13;5072614;28;20222;-82
2023/06/10 09:27:50;;;;;;;5.97;4.63;;;;;;;-145.69;nan;51854.28;5072828;28;20725;-82
2023/06/10 09:30:27;;;;;;;7.00;4.43;;;;;;;-145.69;nan;51874.06;5072919;28;20237;-82
2023/06/10 09:32:55;;;;;;;9.93;5.13;;;;;;;-145.69;nan;51854.28;5072871;28;20237;-79
2023/06/10 09:35:22;;;;;;;8.05;5.78;;;;;;;-145.69;nan;51897.84;5072988;28;20198;-79
2023/06/10 09:37:52;;;;;;;7.75;5.25;;;;;;;-145.69;nan;51895.84;5072961;28;20238;-79
2023/06/10 09:40:18;;;;;;;7.72;5.22;;;;;;;-145.69;nan;51880.00;5073146;28;20584;-79
2023/06/10 09:42:45;;;;;;;8.85;5.35;;;;;;;-145.69;nan;51911.69;5072497;28;20206;-80
2023/06/10 09:45:11;;;;;;;14.90;4.95;;;;;;;-145.69;nan;51887.94;5072644;28;20837;-80
2023/06/10 09:47:38;;;;;;;5.93;4.55;;;;;;;-145.69;nan;51889.91;5072761;28;20237;-80
2023/06/10 09:50:09;;;;;;;7.78;4.45;;;;;;;-145.69;nan;51889.91;5072702;28;20222;-80
2023/06/10 09:52:40;;;;;;;4.32;3.30;;;;;;;-145.69;nan;51893.88;5072608;28;20244;-79
2023/06/10 09:55:11;;;;;;;5.55;3.40;;;;;;;-145.69;nan;51905.75;5072276;28;20260;-79
2023/06/10 09:57:48;;;;;;;3.30;3.00;;;;;;;-145.69;nan;51862.19;5072270;28;20190;-80
2023/06/10 10:00:21;;;;;;;3.90;3.08;;;;;;;-145.69;nan;51846.34;5072600;28;20202;-80
2023/06/10 10:02:51;;;;;;;2.83;2.53;;;;;;;-145.69;nan;51854.28;5072320;28;20752;-79
2023/06/10 10:05:24;;;;;;;3.60;2.63;;;;;;;-145.69;nan;51832.50;5072597;28;20206;-79
2023/06/10 10:08:01;;;;;;;4.93;2.63;;;;;;;-145.69;nan;51858.22;5072670;28;20203;-80
2023/06/10 10:13:24;;;;;;;2.97;2.33;;;;;;;-145.69;nan;51798.81;5071537;28;20668;-80
2023/06/10 10:15:58;;;;;;;3.33;2.40;;;;;;;-145.69;nan;51806.75;5058843;28;20235;-80
2023/06/10 10:18:32;;;;;;;3.10;2.60;;;;;;;-145.69;nan;51796.84;5052185;28;20203;-80
2023/06/10 10:21:08;;;;;;;2.60;2.10;;;;;;;-145.69;nan;51806.75;5052545;28;20261;-81
2023/06/10 10:23:41;;;;;;;3.47;2.20;;;;;;;-145.69;nan;51830.50;5060030;28;20191;-81
2023/06/10 10:26:11;;;;;;;2.67;2.00;;;;;;;-145.69;nan;51806.75;5072195;28;20203;-81
2023/06/10 10:28:42;;;;;;;3.03;2.30;;;;;;;-145.69;nan;51783.00;5072113;28;20206;-82
2023/06/10 10:31:11;;;;;;;2.70;2.10;;;;;;;-145.69;nan;51806.75;5072449;28;20234;-82
2023/06/10 10:33:46;;;;;;;2.85;2.00;;;;;;;-145.69;nan;51786.94;5071959;28;20218;-82
2023/06/10 10:36:14;;;;;;;2.22;1.95;;;;;;;-145.69;nan;51826.56;5072369;28;20695;-81
2023/06/10 10:38:41;;;;;;;2.88;1.83;;;;;;;-145.69;nan;51818.63;5074718;28;20554;-82
2023/06/10 10:41:10;;;;;;;2.10;1.65;;;;;;;-145.69;nan;51802.78;5075847;28;20654;-82
2023/06/10 10:43:37;;;;;;;2.03;1.83;;;;;;;-145.69;nan;51826.56;5075775;28;20198;-81
2023/06/10 10:46:12;;;;;;;1.67;1.58;;;;;;;-145.69;nan;51796.84;5075899;28;20198;-81
2023/06/10 10:48:41;;;;;;;2.33;1.75;;;;;;;-145.69;nan;51816.66;5075933;28;20225;-82
2023/06/10 10:51:08;;;;;;;2.28;1.83;;;;;;;-145.69;nan;51850.31;5075658;28;20226;-82
2023/06/10 10:53:38;;;;;;;2.45;2.00;;;;;;;-145.69;nan;51832.50;5075425;28;20649;-81
2023/06/10 10:56:15;;;;;;;2.17;1.98;;;;;;;-145.69;nan;51822.59;5075864;28;20209;-83
2023/06/10 10:58:45;;;;;;;7.13;2.10;;;;;;;-145.69;nan;51814.66;5075621;28;20256;-82
2023/06/10 11:01:15;;;;;;;2.67;2.20;;;;;;;-145.69;nan;51810.72;5075265;28;20187;-82
2023/06/10 11:03:46;;;;;;;3.58;2.10;;;;;;;-145.69;nan;51826.56;5055661;28;20210;-80
2023/06/10 11:06:20;;;;;;;2.92;1.73;;;;;;;-145.69;nan;51808.72;5059466;28;20211;-80
2023/06/10 11:08:48;;;;;;;2.75;1.90;;;;;;;-145.69;nan;51830.50;5075798;28;20260;-78
2023/06/10 11:11:25;;;;;;;2.60;2.00;;;;;;;-145.69;nan;51820.59;5075057;28;20229;-79
2023/06/10 11:14:10;;;;;;;2.67;2.15;;;;;;;-145.69;nan;51830.50;5075587;28;20217;-80
2023/06/10 11:16:42;;;;;;;2.75;2.13;;;;;;;-145.69;nan;51868.13;5074783;28;20609;-79
2023/06/10 11:19:31;;;;;;;4.68;2.15;;;;;;;-145.69;nan;51822.59;5075507;28;20203;-80
2023/06/10 11:22:01;;;;;;;2.65;2.20;;;;;;;-145.69;nan;51846.34;5074997;28;20202;-79
2023/06/10 11:24:30;;;;;;;2.72;2.05;;;;;;;-145.69;nan;51822.59;5075325;28;20230;-79
2023/06/10 11:27:16;;;;;;;2.42;2.22;;;;;;;-145.69;nan;51798.81;5074762;28;20199;-80
2023/06/10 11:29:56;;;;;;;3.03;2.40;;;;;;;-145.69;nan;51824.56;5075055;28;20608;-80
2023/06/10 11:32:23;;;;;;;2.50;2.30;;;;;;;-145.69;nan;51810.72;5074670;28;20206;-80
2023/06/10 11:34:53;;;;;;;2.40;2.20;;;;;;;-145.69;nan;51810.72;5074723;28;20206;-80
2023/06/10 11:37:20;;;;;;;3.55;2.35;;;;;;;-145.69;nan;51796.84;5074570;28;20195;-79
2023/06/10 11:39:47;;;;;;;3.33;2.40;;;;;;;-145.69;nan;51802.78;5074464;28;20661;-79
2023/06/10 11:42:17;;;;;;;3.35;2.40;;;;;;;-145.69;nan;51783.00;5074474;28;20195;-80